sensor_id;sensor_type;location;lat;lon;timestamp;P1;durP1;ratioP1;P2;durP2;ratioP2
24223;SDS011;12359;49.716;9.212;2023-02-10T00:03:42;0.50;;;0.50;;
24223;SDS011;12359;49.716;9.212;2023-02-10T00:06:09;0.50;;;0.50;;
24223;SDS011;12359;49.716;9.212;2023-02-10T00:08:36;0.40;;;0.40;;
24223;SDS011;12359;49.716;9.212;2023-02-10T00:11:03;0.47;;;0.47;;
24223;SDS011;12359;49.716;9.212;2023-02-10T00:13:30;0.50;;;0.50;;
24223;SDS011;12359;49.716;9.212;2023-02-10T00:15:57;0.52;;;0.52;;
24223;SDS011;12359;49.716;9.212;2023-02-10T00:18:23;0.52;;;0.52;;
24223;SDS011;12359;49.716;9.212;2023-02-10T00:20:49;0.40;;;0.40;;
24223;SDS011;12359;49.716;9.212;2023-02-10T00:23:15;0.40;;;0.40;;
24223;SDS011;12359;49.716;9.212;2023-02-10T00:25:40;0.50;;;0.50;;
24223;SDS011;12359;49.716;9.212;2023-02-10T00:28:06;0.50;;;0.50;;
24223;SDS011;12359;49.716;9.212;2023-02-10T00:30:32;0.60;;;0.60;;
24223;SDS011;12359;49.716;9.212;2023-02-10T00:32:58;0.60;;;0.60;;
24223;SDS011;12359;49.716;9.212;2023-02-10T00:35:23;0.50;;;0.50;;
24223;SDS011;12359;49.716;9.212;2023-02-10T00:37:49;0.40;;;0.40;;
24223;SDS011;12359;49.716;9.212;2023-02-10T00:40:15;0.50;;;0.50;;
24223;SDS011;12359;49.716;9.212;2023-02-10T00:42:41;0.50;;;0.50;;
24223;SDS011;12359;49.716;9.212;2023-02-10T00:45:07;0.52;;;0.52;;
24223;SDS011;12359;49.716;9.212;2023-02-10T00:47:34;0.50;;;0.50;;
24223;SDS011;12359;49.716;9.212;2023-02-10T00:49:59;0.47;;;0.47;;
24223;SDS011;12359;49.716;9.212;2023-02-10T00:52:25;0.38;;;0.38;;
24223;SDS011;12359;49.716;9.212;2023-02-10T00:54:51;0.40;;;0.40;;
24223;SDS011;12359;49.716;9.212;2023-02-10T00:57:17;0.50;;;0.50;;
24223;SDS011;12359;49.716;9.212;2023-02-10T00:59:42;0.50;;;0.50;;
24223;SDS011;12359;49.716;9.212;2023-02-10T01:02:11;0.50;;;0.50;;
24223;SDS011;12359;49.716;9.212;2023-02-10T01:04:39;0.50;;;0.50;;
24223;SDS011;12359;49.716;9.212;2023-02-10T01:07:05;0.45;;;0.45;;
24223;SDS011;12359;49.716;9.212;2023-02-10T01:09:31;0.45;;;0.45;;
24223;SDS011;12359;49.716;9.212;2023-02-10T01:11:56;0.50;;;0.50;;
24223;SDS011;12359;49.716;9.212;2023-02-10T01:14:22;0.55;;;0.55;;
24223;SDS011;12359;49.716;9.212;2023-02-10T01:16:49;0.50;;;0.50;;
24223;SDS011;12359;49.716;9.212;2023-02-10T01:19:15;0.50;;;0.50;;
24223;SDS011;12359;49.716;9.212;2023-02-10T01:21:41;0.50;;;0.50;;
24223;SDS011;12359;49.716;9.212;2023-02-10T01:24:09;0.60;;;0.60;;
24223;SDS011;12359;49.716;9.212;2023-02-10T01:26:35;0.50;;;0.50;;
24223;SDS011;12359;49.716;9.212;2023-02-10T01:29:03;0.50;;;0.50;;
24223;SDS011;12359;49.716;9.212;2023-02-10T01:31:28;0.40;;;0.40;;
24223;SDS011;12359;49.716;9.212;2023-02-10T01:33:54;0.30;;;0.30;;
24223;SDS011;12359;49.716;9.212;2023-02-10T01:36:22;0.50;;;0.50;;
24223;SDS011;12359;49.716;9.212;2023-02-10T01:38:48;0.40;;;0.40;;
24223;SDS011;12359;49.716;9.212;2023-02-10T01:41:15;0.47;;;0.47;;
24223;SDS011;12359;49.716;9.212;2023-02-10T01:46:51;0.40;;;0.40;;
24223;SDS011;12359;49.716;9.212;2023-02-10T01:49:27;0.50;;;0.50;;
24223;SDS011;12359;49.716;9.212;2023-02-10T01:51:59;0.40;;;0.40;;
24223;SDS011;12359;49.716;9.212;2023-02-10T01:54:33;0.60;;;0.60;;
24223;SDS011;12359;49.716;9.212;2023-02-10T01:57:04;0.40;;;0.40;;
24223;SDS011;12359;49.716;9.212;2023-02-10T01:59:31;0.50;;;0.50;;
24223;SDS011;12359;49.716;9.212;2023-02-10T02:02:00;0.40;;;0.40;;
24223;SDS011;12359;49.716;9.212;2023-02-10T02:04:32;0.40;;;0.40;;
24223;SDS011;12359;49.716;9.212;2023-02-10T02:07:25;0.50;;;0.50;;
24223;SDS011;12359;49.716;9.212;2023-02-10T02:09:57;0.50;;;0.50;;
24223;SDS011;12359;49.716;9.212;2023-02-10T02:12:28;0.40;;;0.40;;
24223;SDS011;12359;49.716;9.212;2023-02-10T02:15:02;0.50;;;0.50;;
24223;SDS011;12359;49.716;9.212;2023-02-10T02:34:00;0.50;;;0.50;;
24223;SDS011;12359;49.716;9.212;2023-02-10T02:39:03;0.35;;;0.35;;
24223;SDS011;12359;49.716;9.212;2023-02-10T02:41:30;0.50;;;0.50;;
24223;SDS011;12359;49.716;9.212;2023-02-10T02:43:59;0.50;;;0.50;;
24223;SDS011;12359;49.716;9.212;2023-02-10T02:58:04;0.50;;;0.50;;
24223;SDS011;12359;49.716;9.212;2023-02-10T03:00:29;0.50;;;0.50;;
24223;SDS011;12359;49.716;9.212;2023-02-10T03:02:57;0.40;;;0.40;;
24223;SDS011;12359;49.716;9.212;2023-02-10T03:05:27;0.50;;;0.50;;
24223;SDS011;12359;49.716;9.212;2023-02-10T03:07:55;0.50;;;0.50;;
24223;SDS011;12359;49.716;9.212;2023-02-10T03:10:21;0.50;;;0.50;;
24223;SDS011;12359;49.716;9.212;2023-02-10T03:12:47;0.40;;;0.40;;
24223;SDS011;12359;49.716;9.212;2023-02-10T03:15:13;0.50;;;0.50;;
24223;SDS011;12359;49.716;9.212;2023-02-10T03:17:39;0.60;;;0.60;;
24223;SDS011;12359;49.716;9.212;2023-02-10T03:20:05;0.50;;;0.50;;
24223;SDS011;12359;49.716;9.212;2023-02-10T03:22:31;0.60;;;0.60;;
24223;SDS011;12359;49.716;9.212;2023-02-10T03:24:57;0.45;;;0.45;;
24223;SDS011;12359;49.716;9.212;2023-02-10T03:27:23;0.50;;;0.50;;
24223;SDS011;12359;49.716;9.212;2023-02-10T03:29:48;0.50;;;0.50;;
24223;SDS011;12359;49.716;9.212;2023-02-10T03:32:15;0.52;;;0.52;;
24223;SDS011;12359;49.716;9.212;2023-02-10T03:34:49;0.40;;;0.40;;
24223;SDS011;12359;49.716;9.212;2023-02-10T03:37:14;0.50;;;0.50;;
24223;SDS011;12359;49.716;9.212;2023-02-10T03:39:40;0.60;;;0.60;;
24223;SDS011;12359;49.716;9.212;2023-02-10T03:42:06;0.50;;;0.50;;
24223;SDS011;12359;49.716;9.212;2023-02-10T03:44:32;0.47;;;0.47;;
24223;SDS011;12359;49.716;9.212;2023-02-10T03:46:58;0.40;;;0.40;;
24223;SDS011;12359;49.716;9.212;2023-02-10T03:49:23;0.50;;;0.50;;
24223;SDS011;12359;49.716;9.212;2023-02-10T03:51:49;0.50;;;0.50;;
24223;SDS011;12359;49.716;9.212;2023-02-10T03:54:15;0.47;;;0.47;;
24223;SDS011;12359;49.716;9.212;2023-02-10T03:56:40;0.47;;;0.47;;
24223;SDS011;12359;49.716;9.212;2023-02-10T03:59:06;0.50;;;0.50;;
24223;SDS011;12359;49.716;9.212;2023-02-10T04:01:32;0.40;;;0.40;;
24223;SDS011;12359;49.716;9.212;2023-02-10T04:03:58;0.60;;;0.60;;
24223;SDS011;12359;49.716;9.212;2023-02-10T04:06:25;0.50;;;0.50;;
24223;SDS011;12359;49.716;9.212;2023-02-10T04:08:51;0.40;;;0.40;;
24223;SDS011;12359;49.716;9.212;2023-02-10T04:11:16;0.50;;;0.50;;
24223;SDS011;12359;49.716;9.212;2023-02-10T04:13:42;0.50;;;0.50;;
24223;SDS011;12359;49.716;9.212;2023-02-10T04:16:09;0.50;;;0.50;;
24223;SDS011;12359;49.716;9.212;2023-02-10T04:18:36;0.50;;;0.50;;
24223;SDS011;12359;49.716;9.212;2023-02-10T04:21:04;0.40;;;0.40;;
24223;SDS011;12359;49.716;9.212;2023-02-10T04:23:35;0.60;;;0.60;;
24223;SDS011;12359;49.716;9.212;2023-02-10T04:26:01;0.50;;;0.50;;
24223;SDS011;12359;49.716;9.212;2023-02-10T04:28:26;0.50;;;0.50;;
24223;SDS011;12359;49.716;9.212;2023-02-10T04:30:52;0.40;;;0.40;;
24223;SDS011;12359;49.716;9.212;2023-02-10T04:33:19;0.50;;;0.50;;
24223;SDS011;12359;49.716;9.212;2023-02-10T04:35:48;0.50;;;0.50;;
24223;SDS011;12359;49.716;9.212;2023-02-10T04:38:14;0.45;;;0.45;;
24223;SDS011;12359;49.716;9.212;2023-02-10T04:40:41;0.50;;;0.50;;
24223;SDS011;12359;49.716;9.212;2023-02-10T04:43:07;0.50;;;0.50;;
24223;SDS011;12359;49.716;9.212;2023-02-10T04:45:34;0.50;;;0.50;;
24223;SDS011;12359;49.716;9.212;2023-02-10T04:47:59;0.60;;;0.60;;
24223;SDS011;12359;49.716;9.212;2023-02-10T04:50:25;0.40;;;0.40;;
24223;SDS011;12359;49.716;9.212;2023-02-10T04:52:51;0.50;;;0.50;;
24223;SDS011;12359;49.716;9.212;2023-02-10T04:55:16;0.40;;;0.40;;
24223;SDS011;12359;49.716;9.212;2023-02-10T04:57:42;0.40;;;0.40;;
24223;SDS011;12359;49.716;9.212;2023-02-10T05:00:08;0.60;;;0.60;;
24223;SDS011;12359;49.716;9.212;2023-02-10T05:02:34;0.60;;;0.60;;
24223;SDS011;12359;49.716;9.212;2023-02-10T05:05:03;0.50;;;0.50;;
24223;SDS011;12359;49.716;9.212;2023-02-10T05:07:29;0.40;;;0.40;;
24223;SDS011;12359;49.716;9.212;2023-02-10T05:09:55;0.30;;;0.30;;
24223;SDS011;12359;49.716;9.212;2023-02-10T05:12:20;0.50;;;0.50;;
24223;SDS011;12359;49.716;9.212;2023-02-10T05:14:46;0.47;;;0.47;;
24223;SDS011;12359;49.716;9.212;2023-02-10T05:17:12;0.60;;;0.60;;
24223;SDS011;12359;49.716;9.212;2023-02-10T05:19:38;0.40;;;0.40;;
24223;SDS011;12359;49.716;9.212;2023-02-10T05:22:04;0.40;;;0.40;;
24223;SDS011;12359;49.716;9.212;2023-02-10T05:24:29;0.30;;;0.30;;
24223;SDS011;12359;49.716;9.212;2023-02-10T05:26:55;0.50;;;0.50;;
24223;SDS011;12359;49.716;9.212;2023-02-10T05:29:21;0.40;;;0.40;;
24223;SDS011;12359;49.716;9.212;2023-02-10T05:31:46;0.40;;;0.40;;
24223;SDS011;12359;49.716;9.212;2023-02-10T05:34:12;0.60;;;0.60;;
24223;SDS011;12359;49.716;9.212;2023-02-10T05:36:38;0.40;;;0.40;;
24223;SDS011;12359;49.716;9.212;2023-02-10T05:39:03;0.40;;;0.40;;
24223;SDS011;12359;49.716;9.212;2023-02-10T05:41:47;0.50;;;0.50;;
24223;SDS011;12359;49.716;9.212;2023-02-10T05:44:14;0.50;;;0.50;;
24223;SDS011;12359;49.716;9.212;2023-02-10T05:46:39;0.30;;;0.30;;
24223;SDS011;12359;49.716;9.212;2023-02-10T05:49:08;0.50;;;0.50;;
24223;SDS011;12359;49.716;9.212;2023-02-10T05:51:33;0.40;;;0.40;;
24223;SDS011;12359;49.716;9.212;2023-02-10T05:53:59;0.40;;;0.40;;
24223;SDS011;12359;49.716;9.212;2023-02-10T05:56:25;0.30;;;0.30;;
24223;SDS011;12359;49.716;9.212;2023-02-10T05:58:50;0.40;;;0.40;;
24223;SDS011;12359;49.716;9.212;2023-02-10T06:01:16;0.50;;;0.50;;
24223;SDS011;12359;49.716;9.212;2023-02-10T06:03:42;0.50;;;0.50;;
24223;SDS011;12359;49.716;9.212;2023-02-10T06:06:08;0.50;;;0.50;;
24223;SDS011;12359;49.716;9.212;2023-02-10T06:08:33;0.52;;;0.52;;
24223;SDS011;12359;49.716;9.212;2023-02-10T06:10:59;0.40;;;0.40;;
24223;SDS011;12359;49.716;9.212;2023-02-10T06:13:25;0.60;;;0.60;;
24223;SDS011;12359;49.716;9.212;2023-02-10T06:15:51;0.40;;;0.40;;
24223;SDS011;12359;49.716;9.212;2023-02-10T06:18:16;0.50;;;0.50;;
24223;SDS011;12359;49.716;9.212;2023-02-10T06:20:44;0.38;;;0.38;;
24223;SDS011;12359;49.716;9.212;2023-02-10T06:23:11;0.50;;;0.50;;
24223;SDS011;12359;49.716;9.212;2023-02-10T06:25:37;0.50;;;0.50;;
24223;SDS011;12359;49.716;9.212;2023-02-10T06:28:03;0.55;;;0.55;;
24223;SDS011;12359;49.716;9.212;2023-02-10T06:30:29;0.50;;;0.50;;
24223;SDS011;12359;49.716;9.212;2023-02-10T06:32:54;0.60;;;0.60;;
24223;SDS011;12359;49.716;9.212;2023-02-10T06:35:22;0.50;;;0.50;;
24223;SDS011;12359;49.716;9.212;2023-02-10T06:37:48;0.30;;;0.30;;
24223;SDS011;12359;49.716;9.212;2023-02-10T06:40:17;0.40;;;0.40;;
24223;SDS011;12359;49.716;9.212;2023-02-10T06:42:42;0.40;;;0.40;;
24223;SDS011;12359;49.716;9.212;2023-02-10T06:45:08;0.50;;;0.50;;
24223;SDS011;12359;49.716;9.212;2023-02-10T06:47:34;0.40;;;0.40;;
24223;SDS011;12359;49.716;9.212;2023-02-10T06:50:00;0.50;;;0.50;;
24223;SDS011;12359;49.716;9.212;2023-02-10T06:52:27;0.40;;;0.40;;
24223;SDS011;12359;49.716;9.212;2023-02-10T06:54:53;0.50;;;0.50;;
24223;SDS011;12359;49.716;9.212;2023-02-10T06:57:18;0.40;;;0.40;;
24223;SDS011;12359;49.716;9.212;2023-02-10T06:59:44;0.47;;;0.47;;
24223;SDS011;12359;49.716;9.212;2023-02-10T07:02:11;0.30;;;0.30;;
24223;SDS011;12359;49.716;9.212;2023-02-10T07:04:37;0.57;;;0.57;;
24223;SDS011;12359;49.716;9.212;2023-02-10T07:07:03;0.30;;;0.30;;
24223;SDS011;12359;49.716;9.212;2023-02-10T07:09:29;0.40;;;0.40;;
24223;SDS011;12359;49.716;9.212;2023-02-10T07:11:56;0.60;;;0.60;;
24223;SDS011;12359;49.716;9.212;2023-02-10T07:14:22;0.30;;;0.30;;
24223;SDS011;12359;49.716;9.212;2023-02-10T07:16:51;0.40;;;0.40;;
24223;SDS011;12359;49.716;9.212;2023-02-10T07:19:17;0.45;;;0.45;;
24223;SDS011;12359;49.716;9.212;2023-02-10T07:21:42;0.40;;;0.40;;
24223;SDS011;12359;49.716;9.212;2023-02-10T07:24:08;0.38;;;0.38;;
24223;SDS011;12359;49.716;9.212;2023-02-10T07:26:34;0.40;;;0.40;;
24223;SDS011;12359;49.716;9.212;2023-02-10T07:29:00;0.40;;;0.40;;
24223;SDS011;12359;49.716;9.212;2023-02-10T07:31:26;0.57;;;0.57;;
24223;SDS011;12359;49.716;9.212;2023-02-10T07:33:52;0.40;;;0.40;;
24223;SDS011;12359;49.716;9.212;2023-02-10T07:36:17;0.50;;;0.50;;
24223;SDS011;12359;49.716;9.212;2023-02-10T07:38:43;0.50;;;0.50;;
24223;SDS011;12359;49.716;9.212;2023-02-10T07:41:09;0.57;;;0.57;;
24223;SDS011;12359;49.716;9.212;2023-02-10T07:43:34;0.45;;;0.45;;
24223;SDS011;12359;49.716;9.212;2023-02-10T07:46:00;0.40;;;0.40;;
24223;SDS011;12359;49.716;9.212;2023-02-10T07:48:26;0.40;;;0.40;;
24223;SDS011;12359;49.716;9.212;2023-02-10T07:50:52;0.40;;;0.40;;
24223;SDS011;12359;49.716;9.212;2023-02-10T07:53:18;0.40;;;0.40;;
24223;SDS011;12359;49.716;9.212;2023-02-10T07:55:45;0.50;;;0.50;;
24223;SDS011;12359;49.716;9.212;2023-02-10T07:58:11;0.55;;;0.55;;
24223;SDS011;12359;49.716;9.212;2023-02-10T08:00:36;0.50;;;0.50;;
24223;SDS011;12359;49.716;9.212;2023-02-10T08:03:02;0.50;;;0.50;;
24223;SDS011;12359;49.716;9.212;2023-02-10T08:05:28;0.40;;;0.40;;
24223;SDS011;12359;49.716;9.212;2023-02-10T08:07:54;0.40;;;0.40;;
24223;SDS011;12359;49.716;9.212;2023-02-10T08:10:20;0.50;;;0.50;;
24223;SDS011;12359;49.716;9.212;2023-02-10T08:12:49;0.32;;;0.32;;
24223;SDS011;12359;49.716;9.212;2023-02-10T08:15:15;0.50;;;0.50;;
24223;SDS011;12359;49.716;9.212;2023-02-10T08:17:42;0.50;;;0.50;;
24223;SDS011;12359;49.716;9.212;2023-02-10T08:20:08;0.40;;;0.40;;
24223;SDS011;12359;49.716;9.212;2023-02-10T08:22:34;0.50;;;0.50;;
24223;SDS011;12359;49.716;9.212;2023-02-10T08:25:00;0.57;;;0.57;;
24223;SDS011;12359;49.716;9.212;2023-02-10T08:27:26;0.30;;;0.30;;
24223;SDS011;12359;49.716;9.212;2023-02-10T08:29:53;0.40;;;0.40;;
24223;SDS011;12359;49.716;9.212;2023-02-10T08:32:19;0.40;;;0.40;;
24223;SDS011;12359;49.716;9.212;2023-02-10T08:34:46;0.40;;;0.40;;
24223;SDS011;12359;49.716;9.212;2023-02-10T08:37:12;0.50;;;0.50;;
24223;SDS011;12359;49.716;9.212;2023-02-10T08:39:38;0.32;;;0.32;;
24223;SDS011;12359;49.716;9.212;2023-02-10T08:42:04;0.40;;;0.40;;
24223;SDS011;12359;49.716;9.212;2023-02-10T08:44:29;0.30;;;0.30;;
24223;SDS011;12359;49.716;9.212;2023-02-10T08:46:55;0.30;;;0.30;;
24223;SDS011;12359;49.716;9.212;2023-02-10T08:49:21;0.40;;;0.40;;
24223;SDS011;12359;49.716;9.212;2023-02-10T08:51:49;0.40;;;0.40;;
24223;SDS011;12359;49.716;9.212;2023-02-10T08:54:18;0.30;;;0.30;;
24223;SDS011;12359;49.716;9.212;2023-02-10T08:56:43;0.40;;;0.40;;
24223;SDS011;12359;49.716;9.212;2023-02-10T08:59:09;0.40;;;0.40;;
24223;SDS011;12359;49.716;9.212;2023-02-10T09:01:35;0.50;;;0.50;;
24223;SDS011;12359;49.716;9.212;2023-02-10T09:04:01;0.40;;;0.40;;
24223;SDS011;12359;49.716;9.212;2023-02-10T09:06:29;0.40;;;0.40;;
24223;SDS011;12359;49.716;9.212;2023-02-10T09:08:58;0.40;;;0.40;;
24223;SDS011;12359;49.716;9.212;2023-02-10T09:11:25;0.30;;;0.30;;
24223;SDS011;12359;49.716;9.212;2023-02-10T09:13:52;0.40;;;0.40;;
24223;SDS011;12359;49.716;9.212;2023-02-10T09:16:18;0.30;;;0.30;;
24223;SDS011;12359;49.716;9.212;2023-02-10T09:18:44;0.40;;;0.40;;
24223;SDS011;12359;49.716;9.212;2023-02-10T09:21:10;0.30;;;0.30;;
24223;SDS011;12359;49.716;9.212;2023-02-10T09:23:36;0.40;;;0.40;;
24223;SDS011;12359;49.716;9.212;2023-02-10T09:26:02;0.30;;;0.30;;
24223;SDS011;12359;49.716;9.212;2023-02-10T09:28:28;0.40;;;0.40;;
24223;SDS011;12359;49.716;9.212;2023-02-10T09:30:54;0.30;;;0.30;;
24223;SDS011;12359;49.716;9.212;2023-02-10T09:33:19;0.40;;;0.40;;
24223;SDS011;12359;49.716;9.212;2023-02-10T09:35:45;0.40;;;0.40;;
24223;SDS011;12359;49.716;9.212;2023-02-10T09:38:12;0.30;;;0.30;;
24223;SDS011;12359;49.716;9.212;2023-02-10T09:40:47;0.40;;;0.40;;
24223;SDS011;12359;49.716;9.212;2023-02-10T09:45:52;0.30;;;0.30;;
24223;SDS011;12359;49.716;9.212;2023-02-10T09:51:13;0.40;;;0.40;;
24223;SDS011;12359;49.716;9.212;2023-02-10T09:54:06;0.40;;;0.40;;
24223;SDS011;12359;49.716;9.212;2023-02-10T09:56:36;0.40;;;0.40;;
24223;SDS011;12359;49.716;9.212;2023-02-10T09:59:04;0.30;;;0.30;;
24223;SDS011;12359;49.716;9.212;2023-02-10T10:01:54;0.35;;;0.35;;
24223;SDS011;12359;49.716;9.212;2023-02-10T10:04:25;0.30;;;0.30;;
24223;SDS011;12359;49.716;9.212;2023-02-10T10:12:29;0.47;;;0.47;;
24223;SDS011;12359;49.716;9.212;2023-02-10T10:14:55;0.30;;;0.30;;
24223;SDS011;12359;49.716;9.212;2023-02-10T10:33:50;0.40;;;0.40;;
24223;SDS011;12359;49.716;9.212;2023-02-10T10:36:22;0.30;;;0.30;;
24223;SDS011;12359;49.716;9.212;2023-02-10T10:38:57;0.40;;;0.40;;
24223;SDS011;12359;49.716;9.212;2023-02-10T10:41:31;0.40;;;0.40;;
24223;SDS011;12359;49.716;9.212;2023-02-10T10:44:01;0.30;;;0.30;;
24223;SDS011;12359;49.716;9.212;2023-02-10T10:46:35;0.30;;;0.30;;
24223;SDS011;12359;49.716;9.212;2023-02-10T10:49:07;0.30;;;0.30;;
24223;SDS011;12359;49.716;9.212;2023-02-10T10:51:33;0.30;;;0.30;;
24223;SDS011;12359;49.716;9.212;2023-02-10T10:53:59;0.30;;;0.30;;
24223;SDS011;12359;49.716;9.212;2023-02-10T11:01:47;0.30;;;0.30;;
24223;SDS011;12359;49.716;9.212;2023-02-10T11:06:39;0.40;;;0.40;;
24223;SDS011;12359;49.716;9.212;2023-02-10T11:09:16;0.30;;;0.30;;
24223;SDS011;12359;49.716;9.212;2023-02-10T11:11:47;0.30;;;0.30;;
24223;SDS011;12359;49.716;9.212;2023-02-10T11:14:14;0.30;;;0.30;;
24223;SDS011;12359;49.716;9.212;2023-02-10T11:16:54;0.38;;;0.38;;
24223;SDS011;12359;49.716;9.212;2023-02-10T11:19:29;0.30;;;0.30;;
24223;SDS011;12359;49.716;9.212;2023-02-10T11:21:56;0.30;;;0.30;;
24223;SDS011;12359;49.716;9.212;2023-02-10T11:29:25;0.30;;;0.30;;
24223;SDS011;12359;49.716;9.212;2023-02-10T11:31:53;0.30;;;0.30;;
24223;SDS011;12359;49.716;9.212;2023-02-10T11:36:55;0.40;;;0.40;;
24223;SDS011;12359;49.716;9.212;2023-02-10T11:39:33;0.30;;;0.30;;
24223;SDS011;12359;49.716;9.212;2023-02-10T11:42:11;0.30;;;0.30;;
24223;SDS011;12359;49.716;9.212;2023-02-10T11:44:41;0.40;;;0.40;;
24223;SDS011;12359;49.716;9.212;2023-02-10T11:47:13;0.30;;;0.30;;
24223;SDS011;12359;49.716;9.212;2023-02-10T11:49:47;0.30;;;0.30;;
24223;SDS011;12359;49.716;9.212;2023-02-10T11:52:15;0.30;;;0.30;;
24223;SDS011;12359;49.716;9.212;2023-02-10T11:54:47;0.30;;;0.30;;
24223;SDS011;12359;49.716;9.212;2023-02-10T11:57:30;0.30;;;0.30;;
24223;SDS011;12359;49.716;9.212;2023-02-10T12:08:40;0.30;;;0.30;;
24223;SDS011;12359;49.716;9.212;2023-02-10T12:14:34;0.30;;;0.30;;
24223;SDS011;12359;49.716;9.212;2023-02-10T12:17:29;0.20;;;0.20;;
24223;SDS011;12359;49.716;9.212;2023-02-10T12:31:18;0.30;;;0.30;;
24223;SDS011;12359;49.716;9.212;2023-02-10T12:39:22;0.20;;;0.20;;
24223;SDS011;12359;49.716;9.212;2023-02-10T12:52:37;0.20;;;0.20;;
24223;SDS011;12359;49.716;9.212;2023-02-10T12:57:47;0.20;;;0.20;;
24223;SDS011;12359;49.716;9.212;2023-02-10T13:00:31;0.20;;;0.20;;
24223;SDS011;12359;49.716;9.212;2023-02-10T13:05:50;0.20;;;0.20;;
24223;SDS011;12359;49.716;9.212;2023-02-10T13:08:29;0.20;;;0.20;;
24223;SDS011;12359;49.716;9.212;2023-02-10T13:11:05;0.30;;;0.30;;
24223;SDS011;12359;49.716;9.212;2023-02-10T13:13:36;0.20;;;0.20;;
24223;SDS011;12359;49.716;9.212;2023-02-10T13:16:10;0.20;;;0.20;;
24223;SDS011;12359;49.716;9.212;2023-02-10T13:18:53;0.20;;;0.20;;
24223;SDS011;12359;49.716;9.212;2023-02-10T13:21:40;0.30;;;0.30;;
24223;SDS011;12359;49.716;9.212;2023-02-10T13:29:49;0.30;;;0.30;;
24223;SDS011;12359;49.716;9.212;2023-02-10T13:35:23;0.30;;;0.30;;
24223;SDS011;12359;49.716;9.212;2023-02-10T13:37:53;0.30;;;0.30;;
24223;SDS011;12359;49.716;9.212;2023-02-10T13:40:25;0.20;;;0.20;;
24223;SDS011;12359;49.716;9.212;2023-02-10T13:42:57;0.20;;;0.20;;
24223;SDS011;12359;49.716;9.212;2023-02-10T13:45:30;0.25;;;0.25;;
24223;SDS011;12359;49.716;9.212;2023-02-10T13:47:58;0.30;;;0.30;;
24223;SDS011;12359;49.716;9.212;2023-02-10T13:50:40;0.30;;;0.30;;
24223;SDS011;12359;49.716;9.212;2023-02-10T14:06:43;0.30;;;0.30;;
24223;SDS011;12359;49.716;9.212;2023-02-10T14:11:56;0.30;;;0.30;;
24223;SDS011;12359;49.716;9.212;2023-02-10T14:17:38;0.28;;;0.28;;
24223;SDS011;12359;49.716;9.212;2023-02-10T14:19:47;0.30;;;0.30;;
24223;SDS011;12359;49.716;9.212;2023-02-10T14:24:51;0.30;;;0.30;;
24223;SDS011;12359;49.716;9.212;2023-02-10T14:27:20;0.30;;;0.30;;
24223;SDS011;12359;49.716;9.212;2023-02-10T14:30:34;0.30;;;0.30;;
24223;SDS011;12359;49.716;9.212;2023-02-10T14:32:44;0.20;;;0.20;;
24223;SDS011;12359;49.716;9.212;2023-02-10T14:35:15;0.30;;;0.30;;
24223;SDS011;12359;49.716;9.212;2023-02-10T14:37:51;0.30;;;0.30;;
24223;SDS011;12359;49.716;9.212;2023-02-10T14:40:18;0.30;;;0.30;;
24223;SDS011;12359;49.716;9.212;2023-02-10T14:42:47;0.30;;;0.30;;
24223;SDS011;12359;49.716;9.212;2023-02-10T14:45:20;0.30;;;0.30;;
24223;SDS011;12359;49.716;9.212;2023-02-10T14:47:53;0.30;;;0.30;;
24223;SDS011;12359;49.716;9.212;2023-02-10T14:50:28;0.30;;;0.30;;
24223;SDS011;12359;49.716;9.212;2023-02-10T14:52:54;0.30;;;0.30;;
24223;SDS011;12359;49.716;9.212;2023-02-10T14:57:55;0.30;;;0.30;;
24223;SDS011;12359;49.716;9.212;2023-02-10T15:00:23;0.30;;;0.30;;
24223;SDS011;12359;49.716;9.212;2023-02-10T15:02:52;0.30;;;0.30;;
24223;SDS011;12359;49.716;9.212;2023-02-10T15:05:21;0.30;;;0.30;;
24223;SDS011;12359;49.716;9.212;2023-02-10T15:07:49;0.30;;;0.30;;
24223;SDS011;12359;49.716;9.212;2023-02-10T15:10:23;0.22;;;0.22;;
24223;SDS011;12359;49.716;9.212;2023-02-10T15:13:04;0.30;;;0.30;;
24223;SDS011;12359;49.716;9.212;2023-02-10T15:15:32;0.30;;;0.30;;
24223;SDS011;12359;49.716;9.212;2023-02-10T15:18:07;0.30;;;0.30;;
24223;SDS011;12359;49.716;9.212;2023-02-10T15:20:49;0.30;;;0.30;;
24223;SDS011;12359;49.716;9.212;2023-02-10T15:23:19;0.32;;;0.32;;
24223;SDS011;12359;49.716;9.212;2023-02-10T15:25:45;0.30;;;0.30;;
24223;SDS011;12359;49.716;9.212;2023-02-10T15:30:56;0.30;;;0.30;;
24223;SDS011;12359;49.716;9.212;2023-02-10T15:33:53;0.30;;;0.30;;
24223;SDS011;12359;49.716;9.212;2023-02-10T15:36:44;0.30;;;0.30;;
24223;SDS011;12359;49.716;9.212;2023-02-10T15:39:22;0.30;;;0.30;;
24223;SDS011;12359;49.716;9.212;2023-02-10T15:46:44;0.30;;;0.30;;
24223;SDS011;12359;49.716;9.212;2023-02-10T15:49:12;0.30;;;0.30;;
24223;SDS011;12359;49.716;9.212;2023-02-10T15:51:42;0.30;;;0.30;;
24223;SDS011;12359;49.716;9.212;2023-02-10T15:54:13;0.30;;;0.30;;
24223;SDS011;12359;49.716;9.212;2023-02-10T15:56:59;0.30;;;0.30;;
24223;SDS011;12359;49.716;9.212;2023-02-10T15:59:27;0.30;;;0.30;;
24223;SDS011;12359;49.716;9.212;2023-02-10T16:01:53;0.30;;;0.30;;
24223;SDS011;12359;49.716;9.212;2023-02-10T16:04:26;0.30;;;0.30;;
24223;SDS011;12359;49.716;9.212;2023-02-10T16:06:54;0.25;;;0.25;;
24223;SDS011;12359;49.716;9.212;2023-02-10T16:09:20;0.30;;;0.30;;
24223;SDS011;12359;49.716;9.212;2023-02-10T16:11:46;0.30;;;0.30;;
24223;SDS011;12359;49.716;9.212;2023-02-10T16:14:12;0.30;;;0.30;;
24223;SDS011;12359;49.716;9.212;2023-02-10T16:16:41;0.30;;;0.30;;
24223;SDS011;12359;49.716;9.212;2023-02-10T16:19:11;0.30;;;0.30;;
24223;SDS011;12359;49.716;9.212;2023-02-10T16:21:39;0.30;;;0.30;;
24223;SDS011;12359;49.716;9.212;2023-02-10T16:24:05;0.30;;;0.30;;
24223;SDS011;12359;49.716;9.212;2023-02-10T16:26:37;0.30;;;0.30;;
24223;SDS011;12359;49.716;9.212;2023-02-10T16:29:04;0.20;;;0.20;;
24223;SDS011;12359;49.716;9.212;2023-02-10T16:31:29;0.30;;;0.30;;
24223;SDS011;12359;49.716;9.212;2023-02-10T16:33:57;0.30;;;0.30;;
24223;SDS011;12359;49.716;9.212;2023-02-10T16:36:23;0.30;;;0.30;;
24223;SDS011;12359;49.716;9.212;2023-02-10T16:38:48;0.22;;;0.22;;
24223;SDS011;12359;49.716;9.212;2023-02-10T16:41:14;0.28;;;0.28;;
24223;SDS011;12359;49.716;9.212;2023-02-10T16:43:40;0.40;;;0.40;;
24223;SDS011;12359;49.716;9.212;2023-02-10T16:46:05;0.30;;;0.30;;
24223;SDS011;12359;49.716;9.212;2023-02-10T16:48:33;0.30;;;0.30;;
24223;SDS011;12359;49.716;9.212;2023-02-10T16:50:59;0.30;;;0.30;;
24223;SDS011;12359;49.716;9.212;2023-02-10T16:53:24;0.20;;;0.20;;
24223;SDS011;12359;49.716;9.212;2023-02-10T16:55:50;0.30;;;0.30;;
24223;SDS011;12359;49.716;9.212;2023-02-10T16:58:16;0.30;;;0.30;;
24223;SDS011;12359;49.716;9.212;2023-02-10T17:00:42;0.25;;;0.25;;
24223;SDS011;12359;49.716;9.212;2023-02-10T17:03:09;0.30;;;0.30;;
24223;SDS011;12359;49.716;9.212;2023-02-10T17:05:35;0.25;;;0.25;;
24223;SDS011;12359;49.716;9.212;2023-02-10T17:08:02;0.30;;;0.30;;
24223;SDS011;12359;49.716;9.212;2023-02-10T17:10:29;0.30;;;0.30;;
24223;SDS011;12359;49.716;9.212;2023-02-10T17:12:56;0.30;;;0.30;;
24223;SDS011;12359;49.716;9.212;2023-02-10T17:15:22;0.40;;;0.40;;
24223;SDS011;12359;49.716;9.212;2023-02-10T17:17:48;0.30;;;0.30;;
24223;SDS011;12359;49.716;9.212;2023-02-10T17:20:24;0.30;;;0.30;;
24223;SDS011;12359;49.716;9.212;2023-02-10T17:22:53;0.30;;;0.30;;
24223;SDS011;12359;49.716;9.212;2023-02-10T17:25:20;0.40;;;0.40;;
24223;SDS011;12359;49.716;9.212;2023-02-10T17:27:46;0.30;;;0.30;;
24223;SDS011;12359;49.716;9.212;2023-02-10T17:30:15;0.30;;;0.30;;
24223;SDS011;12359;49.716;9.212;2023-02-10T17:32:42;0.30;;;0.30;;
24223;SDS011;12359;49.716;9.212;2023-02-10T17:35:10;0.30;;;0.30;;
24223;SDS011;12359;49.716;9.212;2023-02-10T17:37:37;0.30;;;0.30;;
24223;SDS011;12359;49.716;9.212;2023-02-10T17:40:03;0.30;;;0.30;;